sensor_id;sensor_type;location;lat;lon;timestamp;pressure;altitude;pressure_sealevel;temperature;humidity
21273;BME280;36726;52.328;10.552;2022-12-07T00:03:44;100371.31;;;4.01;100.00
21273;BME280;36726;52.328;10.552;2022-12-07T00:06:13;100368.84;;;4.04;100.00
21273;BME280;36726;52.328;10.552;2022-12-07T00:08:39;100367.09;;;4.04;100.00
21273;BME280;36726;52.328;10.552;2022-12-07T00:11:11;100361.06;;;4.07;100.00
21273;BME280;36726;52.328;10.552;2022-12-07T00:13:39;100363.75;;;4.08;100.00
21273;BME280;36726;52.328;10.552;2022-12-07T00:16:07;100363.78;;;4.10;100.00
21273;BME280;36726;52.328;10.552;2022-12-07T00:18:35;100350.78;;;4.11;100.00
21273;BME280;36726;52.328;10.552;2022-12-07T00:21:04;100354.31;;;4.13;100.00
21273;BME280;36726;52.328;10.552;2022-12-07T00:23:31;100352.66;;;4.15;100.00
21273;BME280;36726;52.328;10.552;2022-12-07T00:26:09;100347.47;;;4.17;100.00
21273;BME280;36726;52.328;10.552;2022-12-07T00:28:37;100337.88;;;4.17;100.00
21273;BME280;36726;52.328;10.552;2022-12-07T00:31:08;100351.03;;;4.19;100.00
21273;BME280;36726;52.328;10.552;2022-12-07T00:33:35;100350.22;;;4.20;100.00
21273;BME280;36726;52.328;10.552;2022-12-07T00:36:06;100347.59;;;4.20;100.00
21273;BME280;36726;52.328;10.552;2022-12-07T00:38:34;100352.88;;;4.21;100.00
21273;BME280;36726;52.328;10.552;2022-12-07T00:41:03;100346.78;;;4.22;100.00
21273;BME280;36726;52.328;10.552;2022-12-07T00:43:31;100339.81;;;4.23;100.00
21273;BME280;36726;52.328;10.552;2022-12-07T00:45:58;100346.88;;;4.24;100.00
21273;BME280;36726;52.328;10.552;2022-12-07T00:48:25;100344.28;;;4.26;100.00
21273;BME280;36726;52.328;10.552;2022-12-07T00:50:52;100343.38;;;4.25;100.00
21273;BME280;36726;52.328;10.552;2022-12-07T00:53:19;100333.91;;;4.29;100.00
21273;BME280;36726;52.328;10.552;2022-12-07T00:55:46;100322.66;;;4.31;100.00
21273;BME280;36726;52.328;10.552;2022-12-07T00:58:13;100325.38;;;4.34;100.00
21273;BME280;36726;52.328;10.552;2022-12-07T01:00:41;100318.38;;;4.33;100.00
21273;BME280;36726;52.328;10.552;2022-12-07T01:03:12;100312.28;;;4.34;100.00
21273;BME280;36726;52.328;10.552;2022-12-07T01:05:40;100316.75;;;4.37;100.00
21273;BME280;36726;52.328;10.552;2022-12-07T01:08:15;100317.59;;;4.37;100.00
21273;BME280;36726;52.328;10.552;2022-12-07T01:10:41;100311.66;;;4.41;100.00
21273;BME280;36726;52.328;10.552;2022-12-07T01:13:08;100314.34;;;4.44;100.00
21273;BME280;36726;52.328;10.552;2022-12-07T01:15:39;100313.56;;;4.47;100.00
21273;BME280;36726;52.328;10.552;2022-12-07T01:18:06;100315.38;;;4.48;100.00
21273;BME280;36726;52.328;10.552;2022-12-07T01:20:33;100308.44;;;4.50;100.00
21273;BME280;36726;52.328;10.552;2022-12-07T01:23:00;100310.19;;;4.49;100.00
21273;BME280;36726;52.328;10.552;2022-12-07T01:25:26;100306.72;;;4.50;100.00
21273;BME280;36726;52.328;10.552;2022-12-07T01:27:53;100307.53;;;4.48;100.00
21273;BME280;36726;52.328;10.552;2022-12-07T01:30:20;100306.66;;;4.49;100.00
21273;BME280;36726;52.328;10.552;2022-12-07T01:32:46;100290.06;;;4.48;100.00
21273;BME280;36726;52.328;10.552;2022-12-07T01:35:13;100286.69;;;4.52;100.00
21273;BME280;36726;52.328;10.552;2022-12-07T01:37:40;100287.66;;;4.54;100.00
21273;BME280;36726;52.328;10.552;2022-12-07T01:40:07;100276.22;;;4.52;100.00
21273;BME280;36726;52.328;10.552;2022-12-07T01:42:34;100275.50;;;4.56;100.00
21273;BME280;36726;52.328;10.552;2022-12-07T01:45:39;100279.88;;;4.57;100.00
21273;BME280;36726;52.328;10.552;2022-12-07T01:48:08;100286.78;;;4.55;100.00
21273;BME280;36726;52.328;10.552;2022-12-07T01:50:38;100288.47;;;4.53;100.00
21273;BME280;36726;52.328;10.552;2022-12-07T01:53:08;100274.47;;;4.51;100.00
21273;BME280;36726;52.328;10.552;2022-12-07T01:55:39;100284.09;;;4.52;100.00
21273;BME280;36726;52.328;10.552;2022-12-07T01:58:06;100279.56;;;4.48;100.00
21273;BME280;36726;52.328;10.552;2022-12-07T02:00:33;100278.75;;;4.49;100.00
21273;BME280;36726;52.328;10.552;2022-12-07T02:03:30;100273.47;;;4.48;100.00
21273;BME280;36726;52.328;10.552;2022-12-07T02:05:59;100267.34;;;4.47;100.00
21273;BME280;36726;52.328;10.552;2022-12-07T02:08:26;100264.69;;;4.46;100.00
21273;BME280;36726;52.328;10.552;2022-12-07T02:10:54;100266.44;;;4.47;100.00
21273;BME280;36726;52.328;10.552;2022-12-07T02:13:35;100258.75;;;4.51;100.00
21273;BME280;36726;52.328;10.552;2022-12-07T02:21:51;100252.81;;;4.57;100.00
21273;BME280;36726;52.328;10.552;2022-12-07T02:27:19;100248.44;;;4.57;100.00
21273;BME280;36726;52.328;10.552;2022-12-07T02:32:23;100245.81;;;4.57;100.00
21273;BME280;36726;52.328;10.552;2022-12-07T02:34:58;100249.31;;;4.56;100.00
21273;BME280;36726;52.328;10.552;2022-12-07T02:37:43;100241.44;;;4.56;100.00
21273;BME280;36726;52.328;10.552;2022-12-07T02:40:25;100229.16;;;4.55;100.00
21273;BME280;36726;52.328;10.552;2022-12-07T02:42:59;100237.03;;;4.55;100.00
21273;BME280;36726;52.328;10.552;2022-12-07T02:45:29;100223.06;;;4.55;100.00
21273;BME280;36726;52.328;10.552;2022-12-07T02:47:59;100224.78;;;4.54;100.00
21273;BME280;36726;52.328;10.552;2022-12-07T02:50:26;100223.88;;;4.54;100.00
21273;BME280;36726;52.328;10.552;2022-12-07T02:52:54;100224.75;;;4.53;100.00
21273;BME280;36726;52.328;10.552;2022-12-07T02:55:26;100227.41;;;4.54;100.00
21273;BME280;36726;52.328;10.552;2022-12-07T02:58:22;100229.16;;;4.55;100.00
21273;BME280;36726;52.328;10.552;2022-12-07T03:01:23;100234.50;;;4.57;100.00
21273;BME280;36726;52.328;10.552;2022-12-07T03:04:05;100234.53;;;4.58;100.00
21273;BME280;36726;52.328;10.552;2022-12-07T03:06:42;100233.66;;;4.59;100.00
21273;BME280;36726;52.328;10.552;2022-12-07T03:09:36;100234.56;;;4.60;100.00
21273;BME280;36726;52.328;10.552;2022-12-07T03:12:16;100222.38;;;4.60;100.00
21273;BME280;36726;52.328;10.552;2022-12-07T03:14:56;100221.47;;;4.60;100.00
21273;BME280;36726;52.328;10.552;2022-12-07T03:17:26;100217.13;;;4.60;100.00
21273;BME280;36726;52.328;10.552;2022-12-07T03:19:58;100212.75;;;4.61;100.00
21273;BME280;36726;52.328;10.552;2022-12-07T03:22:28;100219.78;;;4.62;100.00
21273;BME280;36726;52.328;10.552;2022-12-07T03:24:58;100218.91;;;4.61;100.00
21273;BME280;36726;52.328;10.552;2022-12-07T03:27:32;100208.41;;;4.61;100.00
21273;BME280;36726;52.328;10.552;2022-12-07T03:30:07;100212.78;;;4.62;100.00
21273;BME280;36726;52.328;10.552;2022-12-07T03:32:47;100207.63;;;4.64;100.00
21273;BME280;36726;52.328;10.552;2022-12-07T03:35:18;100208.50;;;4.64;100.00
21273;BME280;36726;52.328;10.552;2022-12-07T03:37:57;100209.44;;;4.66;100.00
21273;BME280;36726;52.328;10.552;2022-12-07T03:40:33;100206.81;;;4.66;100.00
21273;BME280;36726;52.328;10.552;2022-12-07T03:43:02;100206.00;;;4.67;100.00
21273;BME280;36726;52.328;10.552;2022-12-07T03:45:39;100203.38;;;4.67;100.00
21273;BME280;36726;52.328;10.552;2022-12-07T03:48:26;100198.13;;;4.67;100.00
21273;BME280;36726;52.328;10.552;2022-12-07T03:54:24;100204.19;;;4.66;100.00
21273;BME280;36726;52.328;10.552;2022-12-07T03:56:53;100199.81;;;4.65;100.00
21273;BME280;36726;52.328;10.552;2022-12-07T03:59:21;100199.91;;;4.68;100.00
21273;BME280;36726;52.328;10.552;2022-12-07T04:01:57;100211.31;;;4.70;100.00
21273;BME280;36726;52.328;10.552;2022-12-07T04:04:28;100199.97;;;4.71;100.00
21273;BME280;36726;52.328;10.552;2022-12-07T04:06:55;100205.22;;;4.71;100.00
21273;BME280;36726;52.328;10.552;2022-12-07T04:09:22;100208.75;;;4.72;100.00
21273;BME280;36726;52.328;10.552;2022-12-07T04:11:49;100211.41;;;4.73;100.00
21273;BME280;36726;52.328;10.552;2022-12-07T04:14:15;100207.91;;;4.73;100.00
21273;BME280;36726;52.328;10.552;2022-12-07T04:16:49;100214.91;;;4.74;100.00
21273;BME280;36726;52.328;10.552;2022-12-07T04:19:17;100210.47;;;4.71;100.00
21273;BME280;36726;52.328;10.552;2022-12-07T04:21:44;100198.28;;;4.73;100.00
21273;BME280;36726;52.328;10.552;2022-12-07T04:24:13;100195.63;;;4.72;100.00
21273;BME280;36726;52.328;10.552;2022-12-07T04:26:41;100206.13;;;4.72;100.00
21273;BME280;36726;52.328;10.552;2022-12-07T04:29:09;100199.94;;;4.70;100.00
21273;BME280;36726;52.328;10.552;2022-12-07T04:31:36;100200.75;;;4.67;100.00
21273;BME280;36726;52.328;10.552;2022-12-07T04:34:03;100202.44;;;4.65;100.00
21273;BME280;36726;52.328;10.552;2022-12-07T04:36:31;100198.91;;;4.65;100.00
21273;BME280;36726;52.328;10.552;2022-12-07T04:38:58;100200.66;;;4.64;100.00
21273;BME280;36726;52.328;10.552;2022-12-07T04:41:24;100201.41;;;4.60;100.00
21273;BME280;36726;52.328;10.552;2022-12-07T04:44:01;100201.22;;;4.54;100.00
21273;BME280;36726;52.328;10.552;2022-12-07T04:46:30;100192.38;;;4.51;100.00
21273;BME280;36726;52.328;10.552;2022-12-07T04:48:57;100200.06;;;4.46;100.00
21273;BME280;36726;52.328;10.552;2022-12-07T04:51:26;100192.91;;;4.41;100.00
21273;BME280;36726;52.328;10.552;2022-12-07T04:53:54;100198.03;;;4.36;100.00
21273;BME280;36726;52.328;10.552;2022-12-07T04:56:22;100197.03;;;4.33;100.00
21273;BME280;36726;52.328;10.552;2022-12-07T04:58:50;100201.34;;;4.31;100.00
21273;BME280;36726;52.328;10.552;2022-12-07T05:01:22;100194.44;;;4.33;100.00
21273;BME280;36726;52.328;10.552;2022-12-07T05:03:49;100193.56;;;4.34;100.00
21273;BME280;36726;52.328;10.552;2022-12-07T05:06:16;100200.44;;;4.30;100.00
21273;BME280;36726;52.328;10.552;2022-12-07T05:08:43;100207.28;;;4.25;100.00
21273;BME280;36726;52.328;10.552;2022-12-07T05:11:10;100198.63;;;4.28;100.00
21273;BME280;36726;52.328;10.552;2022-12-07T05:13:57;100197.03;;;4.33;100.00
21273;BME280;36726;52.328;10.552;2022-12-07T05:16:24;100202.28;;;4.33;100.00
21273;BME280;36726;52.328;10.552;2022-12-07T05:18:51;100199.63;;;4.31;100.00
21273;BME280;36726;52.328;10.552;2022-12-07T05:21:18;100208.25;;;4.29;100.00
21273;BME280;36726;52.328;10.552;2022-12-07T05:23:45;100204.75;;;4.28;100.00
21273;BME280;36726;52.328;10.552;2022-12-07T05:26:11;100208.25;;;4.29;100.00
21273;BME280;36726;52.328;10.552;2022-12-07T05:28:38;100208.34;;;4.32;100.00
21273;BME280;36726;52.328;10.552;2022-12-07T05:31:04;100211.03;;;4.33;100.00
21273;BME280;36726;52.328;10.552;2022-12-07T05:33:31;100211.84;;;4.32;100.00
21273;BME280;36726;52.328;10.552;2022-12-07T05:35:58;100204.81;;;4.30;100.00
21273;BME280;36726;52.328;10.552;2022-12-07T05:38:24;100209.16;;;4.29;100.00
21273;BME280;36726;52.328;10.552;2022-12-07T05:40:51;100208.22;;;4.27;100.00
21273;BME280;36726;52.328;10.552;2022-12-07T05:43:18;100210.84;;;4.27;100.00
21273;BME280;36726;52.328;10.552;2022-12-07T05:45:44;100187.22;;;4.26;100.00
21273;BME280;36726;52.328;10.552;2022-12-07T05:48:11;100198.56;;;4.26;100.00
21273;BME280;36726;52.328;10.552;2022-12-07T05:50:37;100198.56;;;4.26;100.00
21273;BME280;36726;52.328;10.552;2022-12-07T05:53:04;100203.81;;;4.26;100.00
21273;BME280;36726;52.328;10.552;2022-12-07T05:55:31;100202.13;;;4.28;100.00
21273;BME280;36726;52.328;10.552;2022-12-07T05:57:57;100197.75;;;4.27;100.00
21273;BME280;36726;52.328;10.552;2022-12-07T06:00:42;100195.22;;;4.30;100.00
21273;BME280;36726;52.328;10.552;2022-12-07T06:03:16;100199.66;;;4.33;100.00
21273;BME280;36726;52.328;10.552;2022-12-07T06:05:45;100191.84;;;4.34;100.00
21273;BME280;36726;52.328;10.552;2022-12-07T06:08:12;100196.31;;;4.37;100.00
21273;BME280;36726;52.328;10.552;2022-12-07T06:10:38;100195.41;;;4.36;100.00
21273;BME280;36726;52.328;10.552;2022-12-07T06:13:05;100184.94;;;4.36;100.00
21273;BME280;36726;52.328;10.552;2022-12-07T06:15:31;100199.75;;;4.36;100.00
21273;BME280;36726;52.328;10.552;2022-12-07T06:17:58;100195.41;;;4.36;100.00
21273;BME280;36726;52.328;10.552;2022-12-07T06:20:24;100202.41;;;4.37;100.00
21273;BME280;36726;52.328;10.552;2022-12-07T06:22:51;100188.53;;;4.40;100.00
21273;BME280;36726;52.328;10.552;2022-12-07T06:25:18;100195.63;;;4.42;100.00
21273;BME280;36726;52.328;10.552;2022-12-07T06:27:44;100206.09;;;4.42;100.00
21273;BME280;36726;52.328;10.552;2022-12-07T06:30:11;100198.13;;;4.39;100.00
21273;BME280;36726;52.328;10.552;2022-12-07T06:32:38;100205.84;;;4.35;100.00
21273;BME280;36726;52.328;10.552;2022-12-07T06:35:04;100208.16;;;4.26;100.00
21273;BME280;36726;52.328;10.552;2022-12-07T06:37:31;100208.94;;;4.23;100.00
21273;BME280;36726;52.328;10.552;2022-12-07T06:39:58;100213.19;;;4.19;100.00
21273;BME280;36726;52.328;10.552;2022-12-07T06:42:24;100214.75;;;4.13;100.00
21273;BME280;36726;52.328;10.552;2022-12-07T06:44:51;100216.25;;;4.06;100.00
21273;BME280;36726;52.328;10.552;2022-12-07T06:47:18;100210.78;;;3.99;100.00
21273;BME280;36726;52.328;10.552;2022-12-07T06:50:05;100211.41;;;3.92;100.00
21273;BME280;36726;52.328;10.552;2022-12-07T06:52:32;100222.66;;;3.89;100.00
21273;BME280;36726;52.328;10.552;2022-12-07T06:54:59;100216.31;;;3.83;100.00
21273;BME280;36726;52.328;10.552;2022-12-07T06:57:26;100210.09;;;3.79;100.00
21273;BME280;36726;52.328;10.552;2022-12-07T06:59:52;100205.72;;;3.78;100.00
21273;BME280;36726;52.328;10.552;2022-12-07T07:02:19;100212.66;;;3.78;100.00
21273;BME280;36726;52.328;10.552;2022-12-07T07:04:45;100212.66;;;3.78;100.00
21273;BME280;36726;52.328;10.552;2022-12-07T07:07:12;100203.19;;;3.81;100.00
21273;BME280;36726;52.328;10.552;2022-12-07T07:09:38;100211.09;;;3.83;100.00
21273;BME280;36726;52.328;10.552;2022-12-07T07:12:05;100209.41;;;3.85;100.00
21273;BME280;36726;52.328;10.552;2022-12-07T07:14:32;100213.03;;;3.88;100.00
21273;BME280;36726;52.328;10.552;2022-12-07T07:16:59;100217.47;;;3.91;100.00
21273;BME280;36726;52.328;10.552;2022-12-07T07:19:29;100215.75;;;3.91;100.00
21273;BME280;36726;52.328;10.552;2022-12-07T07:21:55;100225.41;;;3.94;100.00
21273;BME280;36726;52.328;10.552;2022-12-07T07:24:22;100221.00;;;3.91;100.00
21273;BME280;36726;52.328;10.552;2022-12-07T07:26:48;100220.16;;;3.92;100.00
21273;BME280;36726;52.328;10.552;2022-12-07T07:29:15;100221.84;;;3.92;100.00
21273;BME280;36726;52.328;10.552;2022-12-07T07:31:41;100227.09;;;3.92;100.00
21273;BME280;36726;52.328;10.552;2022-12-07T07:34:08;100228.00;;;3.92;100.00
21273;BME280;36726;52.328;10.552;2022-12-07T07:36:35;100238.31;;;3.88;100.00
21273;BME280;36726;52.328;10.552;2022-12-07T07:39:02;100231.19;;;3.84;100.00
21273;BME280;36726;52.328;10.552;2022-12-07T07:41:28;100233.84;;;3.85;100.00
21273;BME280;36726;52.328;10.552;2022-12-07T07:43:55;100242.75;;;3.90;100.00
21273;BME280;36726;52.328;10.552;2022-12-07T07:46:22;100234.22;;;3.96;100.00
21273;BME280;36726;52.328;10.552;2022-12-07T07:48:49;100239.56;;;3.99;100.00
21273;BME280;36726;52.328;10.552;2022-12-07T07:51:15;100237.78;;;3.98;100.00
21273;BME280;36726;52.328;10.552;2022-12-07T07:53:42;100242.22;;;4.00;100.00
21273;BME280;36726;52.328;10.552;2022-12-07T07:56:08;100233.50;;;4.00;100.00
21273;BME280;36726;52.328;10.552;2022-12-07T07:58:35;100236.16;;;4.01;100.00
21273;BME280;36726;52.328;10.552;2022-12-07T08:01:06;100247.47;;;4.00;100.00
21273;BME280;36726;52.328;10.552;2022-12-07T08:03:33;100241.34;;;4.00;100.00
21273;BME280;36726;52.328;10.552;2022-12-07T08:05:59;100246.56;;;4.00;100.00
21273;BME280;36726;52.328;10.552;2022-12-07T08:08:27;100241.25;;;3.97;100.00
21273;BME280;36726;52.328;10.552;2022-12-07T08:10:54;100241.25;;;3.97;100.00
21273;BME280;36726;52.328;10.552;2022-12-07T08:13:21;100244.69;;;3.96;100.00
21273;BME280;36726;52.328;10.552;2022-12-07T08:15:55;100239.44;;;3.96;100.00
21273;BME280;36726;52.328;10.552;2022-12-07T08:18:22;100239.44;;;3.96;100.00
21273;BME280;36726;52.328;10.552;2022-12-07T08:20:49;100236.97;;;3.99;100.00
21273;BME280;36726;52.328;10.552;2022-12-07T08:23:16;100243.94;;;4.00;100.00
21273;BME280;36726;52.328;10.552;2022-12-07T08:25:43;100238.00;;;4.04;100.00
21273;BME280;36726;52.328;10.552;2022-12-07T08:28:10;100244.22;;;4.07;100.00
21273;BME280;36726;52.328;10.552;2022-12-07T08:30:36;100237.19;;;4.06;100.00
21273;BME280;36726;52.328;10.552;2022-12-07T08:33:03;100235.56;;;4.10;100.00
21273;BME280;36726;52.328;10.552;2022-12-07T08:35:33;100237.34;;;4.11;100.00
21273;BME280;36726;52.328;10.552;2022-12-07T08:38:00;100240.91;;;4.13;100.00
21273;BME280;36726;52.328;10.552;2022-12-07T08:40:28;100245.19;;;4.11;100.00
21273;BME280;36726;52.328;10.552;2022-12-07T08:42:55;100241.59;;;4.07;100.00
21273;BME280;36726;52.328;10.552;2022-12-07T08:45:22;100246.91;;;4.10;100.00
21273;BME280;36726;52.328;10.552;2022-12-07T08:48:00;100246.97;;;4.12;100.00
21273;BME280;36726;52.328;10.552;2022-12-07T08:50:31;100247.91;;;4.14;100.00
21273;BME280;36726;52.328;10.552;2022-12-07T08:52:59;100260.31;;;4.19;100.00
21273;BME280;36726;52.328;10.552;2022-12-07T08:55:27;100241.31;;;4.25;100.00
21273;BME280;36726;52.328;10.552;2022-12-07T08:57:57;100254.47;;;4.28;100.00
21273;BME280;36726;52.328;10.552;2022-12-07T09:00:25;100251.22;;;4.35;100.00
21273;BME280;36726;52.328;10.552;2022-12-07T09:02:53;100250.53;;;4.41;100.00
21273;BME280;36726;52.328;10.552;2022-12-07T09:05:20;100248.06;;;4.45;100.00
21273;BME280;36726;52.328;10.552;2022-12-07T09:07:51;100254.38;;;4.52;100.00
21273;BME280;36726;52.328;10.552;2022-12-07T09:10:21;100251.91;;;4.56;100.00
21273;BME280;36726;52.328;10.552;2022-12-07T09:12:47;100257.25;;;4.59;100.00
21273;BME280;36726;52.328;10.552;2022-12-07T09:15:14;100257.28;;;4.61;100.00
21273;BME280;36726;52.328;10.552;2022-12-07T09:17:41;100255.59;;;4.63;100.00
21273;BME280;36726;52.328;10.552;2022-12-07T09:20:07;100260.16;;;4.68;100.00
21273;BME280;36726;52.328;10.552;2022-12-07T09:22:34;100257.59;;;4.71;100.00
21273;BME280;36726;52.328;10.552;2022-12-07T09:25:02;100248.03;;;4.72;100.00
21273;BME280;36726;52.328;10.552;2022-12-07T09:27:29;100259.25;;;4.68;100.00
21273;BME280;36726;52.328;10.552;2022-12-07T09:29:55;100248.84;;;4.69;100.00
21273;BME280;36726;52.328;10.552;2022-12-07T09:32:22;100241.81;;;4.68;100.00
21273;BME280;36726;52.328;10.552;2022-12-07T09:34:49;100240.91;;;4.68;100.00
21273;BME280;36726;52.328;10.552;2022-12-07T09:37:16;100240.91;;;4.68;100.00
21273;BME280;36726;52.328;10.552;2022-12-07T09:39:43;100247.91;;;4.67;100.00
21273;BME280;36726;52.328;10.552;2022-12-07T09:42:28;100244.31;;;4.64;100.00
21273;BME280;36726;52.328;10.552;2022-12-07T09:44:56;100256.50;;;4.63;100.00
21273;BME280;36726;52.328;10.552;2022-12-07T09:47:25;100253.88;;;4.63;100.00
21273;BME280;36726;52.328;10.552;2022-12-07T09:49:55;100248.84;;;4.69;100.00
21273;BME280;36726;52.328;10.552;2022-12-07T09:52:30;100247.13;;;4.71;100.00
21273;BME280;36726;52.328;10.552;2022-12-07T09:55:10;100247.25;;;4.74;100.00
21273;BME280;36726;52.328;10.552;2022-12-07T09:57:37;100238.56;;;4.77;100.00
21273;BME280;36726;52.328;10.552;2022-12-07T10:00:16;100236.94;;;4.80;100.00
21273;BME280;36726;52.328;10.552;2022-12-07T10:02:46;100236.16;;;4.83;100.00
21273;BME280;36726;52.328;10.552;2022-12-07T10:05:16;100244.94;;;4.85;100.00
21273;BME280;36726;52.328;10.552;2022-12-07T10:07:50;100245.94;;;4.88;100.00
21273;BME280;36726;52.328;10.552;2022-12-07T10:10:30;100247.75;;;4.91;100.00
21273;BME280;36726;52.328;10.552;2022-12-07T10:13:06;100244.28;;;4.92;100.00
21273;BME280;36726;52.328;10.552;2022-12-07T10:15:52;100231.41;;;4.99;100.00
21273;BME280;36726;52.328;10.552;2022-12-07T10:18:37;100241.31;;;5.09;100.00
21273;BME280;36726;52.328;10.552;2022-12-07T10:21:12;100232.63;;;5.10;100.00
21273;BME280;36726;52.328;10.552;2022-12-07T10:26:36;100238.81;;;5.12;100.00
21273;BME280;36726;52.328;10.552;2022-12-07T10:29:24;100234.53;;;5.16;99.21
21273;BME280;36726;52.328;10.552;2022-12-07T10:35:42;100228.69;;;5.26;100.00
21273;BME280;36726;52.328;10.552;2022-12-07T10:38:16;100234.97;;;5.32;100.00
21273;BME280;36726;52.328;10.552;2022-12-07T10:40:43;100230.53;;;5.28;97.81
21273;BME280;36726;52.328;10.552;2022-12-07T10:51:17;100229.22;;;5.44;97.23
21273;BME280;36726;52.328;10.552;2022-12-07T10:53:54;100223.13;;;5.45;97.53
21273;BME280;36726;52.328;10.552;2022-12-07T10:56:39;100216.09;;;5.44;96.11
21273;BME280;36726;52.328;10.552;2022-12-07T11:02:36;100220.50;;;5.45;96.48
21273;BME280;36726;52.328;10.552;2022-12-07T11:11:06;100216.13;;;5.46;96.47
21273;BME280;36726;52.328;10.552;2022-12-07T11:13:51;100210.84;;;5.44;95.63
21273;BME280;36726;52.328;10.552;2022-12-07T11:19:32;100216.13;;;5.46;94.93
21273;BME280;36726;52.328;10.552;2022-12-07T11:22:28;100224.13;;;5.50;94.20
21273;BME280;36726;52.328;10.552;2022-12-07T11:25:15;100217.06;;;5.48;94.49
21273;BME280;36726;52.328;10.552;2022-12-07T11:30:33;100214.63;;;5.54;94.86
21273;BME280;36726;52.328;10.552;2022-12-07T11:33:12;100209.69;;;5.66;94.16
21273;BME280;36726;52.328;10.552;2022-12-07T11:38:16;100201.63;;;5.91;92.63
21273;BME280;36726;52.328;10.552;2022-12-07T11:40:53;100206.91;;;5.92;92.59
21273;BME280;36726;52.328;10.552;2022-12-07T11:43:28;100198.25;;;5.95;92.02
21273;BME280;36726;52.328;10.552;2022-12-07T11:46:08;100193.75;;;5.91;92.24
21273;BME280;36726;52.328;10.552;2022-12-07T11:49:09;100192.00;;;5.90;92.88
21273;BME280;36726;52.328;10.552;2022-12-07T11:51:38;100190.22;;;5.90;93.64
21273;BME280;36726;52.328;10.552;2022-12-07T11:54:29;100185.88;;;5.91;93.10
21273;BME280;36726;52.328;10.552;2022-12-07T11:57:03;100179.69;;;5.89;94.14
21273;BME280;36726;52.328;10.552;2022-12-07T11:59:36;100185.97;;;5.94;94.64
21273;BME280;36726;52.328;10.552;2022-12-07T12:02:22;100173.75;;;5.96;95.22
21273;BME280;36726;52.328;10.552;2022-12-07T12:04:56;100173.63;;;5.90;94.88
21273;BME280;36726;52.328;10.552;2022-12-07T12:07:26;100162.97;;;5.84;94.89
21273;BME280;36726;52.328;10.552;2022-12-07T12:13:26;100165.47;;;5.81;94.34
21273;BME280;36726;52.328;10.552;2022-12-07T12:16:44;100172.91;;;5.97;92.77
21273;BME280;36726;52.328;10.552;2022-12-07T12:22:19;100166.97;;;6.04;92.70
21273;BME280;36726;52.328;10.552;2022-12-07T12:24:52;100167.06;;;6.08;92.73
21273;BME280;36726;52.328;10.552;2022-12-07T12:27:29;100176.56;;;6.03;90.25
21273;BME280;36726;52.328;10.552;2022-12-07T12:29:59;100169.44;;;5.98;90.72
21273;BME280;36726;52.328;10.552;2022-12-07T12:32:37;100169.38;;;5.95;90.20
21273;BME280;36726;52.328;10.552;2022-12-07T12:37:54;100157.41;;;6.06;90.61
21273;BME280;36726;52.328;10.552;2022-12-07T12:42:53;100152.41;;;6.18;88.76
21273;BME280;36726;52.328;10.552;2022-12-07T12:45:29;100154.13;;;6.16;87.09
21273;BME280;36726;52.328;10.552;2022-12-07T12:48:00;100146.03;;;6.07;87.33
21273;BME280;36726;52.328;10.552;2022-12-07T12:50:35;100149.28;;;5.97;87.23
21273;BME280;36726;52.328;10.552;2022-12-07T12:53:05;100145.50;;;5.86;87.91
21273;BME280;36726;52.328;10.552;2022-12-07T13:00:47;100136.53;;;5.78;88.22
21273;BME280;36726;52.328;10.552;2022-12-07T13:03:27;100139.25;;;5.81;87.90
21273;BME280;36726;52.328;10.552;2022-12-07T13:06:47;100141.97;;;5.84;88.59
21273;BME280;36726;52.328;10.552;2022-12-07T13:09:18;100145.28;;;5.78;88.23
21273;BME280;36726;52.328;10.552;2022-12-07T13:11:48;100133.75;;;5.72;89.12
21273;BME280;36726;52.328;10.552;2022-12-07T13:14:55;100125.66;;;5.63;88.67
21273;BME280;36726;52.328;10.552;2022-12-07T13:20:05;100123.97;;;5.65;88.91
21273;BME280;36726;52.328;10.552;2022-12-07T13:22:43;100139.59;;;5.62;89.88
21273;BME280;36726;52.328;10.552;2022-12-07T13:25:30;100127.38;;;5.62;90.37
21273;BME280;36726;52.328;10.552;2022-12-07T13:28:02;100134.38;;;5.62;90.02
21273;BME280;36726;52.328;10.552;2022-12-07T13:30:31;100132.59;;;5.61;90.64
21273;BME280;36726;52.328;10.552;2022-12-07T13:32:59;100132.38;;;5.52;90.50
21273;BME280;36726;52.328;10.552;2022-12-07T13:35:29;100125.25;;;5.48;91.16
21273;BME280;36726;52.328;10.552;2022-12-07T13:37:56;100124.44;;;5.49;91.44
21273;BME280;36726;52.328;10.552;2022-12-07T13:40:24;100124.34;;;5.46;91.50
21273;BME280;36726;52.328;10.552;2022-12-07T13:42:59;100130.28;;;5.39;91.42
21273;BME280;36726;52.328;10.552;2022-12-07T13:45:27;100131.09;;;5.36;92.63
21273;BME280;36726;52.328;10.552;2022-12-07T13:48:36;100120.66;;;5.38;92.75
21273;BME280;36726;52.328;10.552;2022-12-07T13:51:20;100123.31;;;5.39;93.70
21273;BME280;36726;52.328;10.552;2022-12-07T13:53:50;100123.38;;;5.42;94.18
21273;BME280;36726;52.328;10.552;2022-12-07T13:56:18;100128.56;;;5.41;94.04
21273;BME280;36726;52.328;10.552;2022-12-07T13:58:47;100125.03;;;5.39;93.98
21273;BME280;36726;52.328;10.552;2022-12-07T14:01:14;100124.06;;;5.35;95.01
21273;BME280;36726;52.328;10.552;2022-12-07T14:03:41;100123.09;;;5.32;95.08
21273;BME280;36726;52.328;10.552;2022-12-07T14:06:27;100128.25;;;5.28;95.38
21273;BME280;36726;52.328;10.552;2022-12-07T14:09:27;100123.06;;;5.30;95.84
21273;BME280;36726;52.328;10.552;2022-12-07T14:11:56;100133.63;;;5.33;96.39
21273;BME280;36726;52.328;10.552;2022-12-07T14:14:27;100129.31;;;5.35;95.96